Ohley, West Virginia
Current Conditions -  °F | °C
As of 1:54 PM on Sunday 23 Nov 2014 (Local Time) from KCRW Reporting Station
Overcast Overcast  
Wind Chill: 62°   Ceiling: 13000
Heat Index: 62°   Visibility: 10mi
Dew Point: 41°   Wind: 10mph
Humidity: 46%   Direction: 150°SSE
Pressure: 29.88"   Gusts: NA
Location:  38.11°N, 81.45°W
Report Text: KCRW 231854Z 15009KT 110V180 10SM BKN130 BKN170 OVC300 17/05 A2988 RMK AO2 SLP118 OVC V BKN T01670050
Loading
Personal Weather Stations






























Interactive Weather Map New forecast layout! Learn more

10-Day Weather Forecast

Advertisements
Track Severe Weather on mobile